Time;durP1;ratioP1;P1;durP2;ratioP2;P2;SDS_P1;SDS_P2;PMS_P1;PMS_P2;Temp;Humidity;BMP_temperature;BMP_pressure;BME280_temperature;BME280_humidity;BME280_pressure;Samples;Min_cycle;Max_cycle;Signal;HPM_P1;HPM_P2
2022/04/07 00:01:30;;;;;;;;;;;;;;;;;;5091801;28;19912;-26
2022/04/07 00:03:56;;;;;;;;;;;;;;;;;;5091738;28;20240;-26
2022/04/07 00:06:22;;;;;;;;;;;;;;;;;;5090756;28;19934;-25
2022/04/07 00:08:48;;;;;;;;;;;;;;;;;;5099074;28;19946;-25
2022/04/07 00:11:14;;;;;;;;;;;;;;;;;;5110991;28;20357;-24
2022/04/07 00:13:40;;;;;;;;;;;;;;;;;;5111927;28;19919;-24
2022/04/07 00:16:06;;;;;;;;;;;;;;;;;;5111856;28;19908;-25
2022/04/07 00:18:32;;;;;;;;;;;;;;;;;;5111810;28;19915;-27
2022/04/07 00:20:59;;;;;;;;;;;;;;;;;;5102641;28;20287;-26
2022/04/07 00:23:25;;;;;;;;;;;;;;;;;;5098126;28;19942;-30
2022/04/07 00:25:51;;;;;;;;;;;;;;;;;;5098110;28;19912;-27
2022/04/07 00:28:17;;;;;;;;;;;;;;;;;;5097914;28;19912;-28
2022/04/07 00:30:44;;;;;;;;;;;;;;;;;;5097041;28;19999;-26
2022/04/07 00:33:10;;;;;;;;;;;;;;;;;;5098224;28;20243;-31
2022/04/07 00:35:36;;;;;;;;;;;;;;;;;;5098177;28;19915;-25
2022/04/07 00:38:02;;;;;;;;;;;;;;;;;;5097791;28;19916;-26
2022/04/07 00:40:28;;;;;;;;;;;;;;;;;;5098132;28;19908;-30
2022/04/07 00:42:54;;;;;;;;;;;;;;;;;;5098072;28;19912;-26
2022/04/07 00:45:20;;;;;;;;;;;;;;;;;;5096752;28;19912;-25
2022/04/07 00:47:46;;;;;;;;;;;;;;;;;;5097598;28;19914;-24
2022/04/07 00:50:12;;;;;;;;;;;;;;;;;;5097539;28;19920;-24
2022/04/07 00:52:38;;;;;;;;;;;;;;;;;;5097523;28;19908;-27
2022/04/07 00:55:04;;;;;;;;;;;;;;;;;;5097785;28;19939;-25
2022/04/07 00:57:30;;;;;;;;;;;;;;;;;;5097424;28;19908;-25
2022/04/07 00:59:56;;;;;;;;;;;;;;;;;;5097447;28;20335;-24
2022/04/07 01:02:22;;;;;;;;;;;;;;;;;;5097373;28;19908;-24
2022/04/07 01:04:48;;;;;;;;;;;;;;;;;;5096412;28;20307;-24
2022/04/07 01:07:14;;;;;;;;;;;;;;;;;;5096230;28;19971;-30
2022/04/07 01:09:40;;;;;;;;;;;;;;;;;;5096783;28;19982;-26
2022/04/07 01:12:06;;;;;;;;;;;;;;;;;;5097527;28;19919;-26
2022/04/07 01:14:32;;;;;;;;;;;;;;;;;;5097145;28;20454;-25
2022/04/07 01:16:58;;;;;;;;;;;;;;;;;;5097337;28;20072;-27
2022/04/07 01:19:24;;;;;;;;;;;;;;;;;;5097026;28;19939;-25
2022/04/07 01:21:50;;;;;;;;;;;;;;;;;;5097299;28;19961;-25
2022/04/07 01:24:18;;;;;;;;;;;;;;;;;;5097014;28;19912;-28
2022/04/07 01:26:44;;;;;;;;;;;;;;;;;;5096934;28;20255;-26
2022/04/07 01:29:10;;;;;;;;;;;;;;;;;;5096687;28;19922;-26
2022/04/07 01:31:36;;;;;;;;;;;;;;;;;;5095115;28;19991;-29
2022/04/07 01:34:02;;;;;;;;;;;;;;;;;;5096560;28;19951;-26
2022/04/07 01:36:28;;;;;;;;;;;;;;;;;;5096780;28;19908;-26
2022/04/07 01:38:54;;;;;;;;;;;;;;;;;;5096652;28;19912;-25
2022/04/07 01:41:21;;;;;;;;;;;;;;;;;;5095702;28;19965;-27
2022/04/07 01:43:47;;;;;;;;;;;;;;;;;;5096651;28;19918;-25
2022/04/07 01:46:14;;;;;;;;;;;;;;;;;;5096814;28;19912;-26
2022/04/07 01:48:40;;;;;;;;;;;;;;;;;;5095408;28;20258;-27
2022/04/07 01:51:06;;;;;;;;;;;;;;;;;;5096453;28;19965;-23
2022/04/07 01:53:32;;;;;;;;;;;;;;;;;;5096725;28;20081;-25
2022/04/07 01:55:58;;;;;;;;;;;;;;;;;;5096367;28;19919;-22
2022/04/07 01:58:24;;;;;;;;;;;;;;;;;;5096290;28;19908;-25
2022/04/07 02:00:50;;;;;;;;;;;;;;;;;;5096568;28;19955;-23
2022/04/07 02:03:16;;;;;;;;;;;;;;;;;;5096478;28;20288;-24
2022/04/07 02:05:42;;;;;;;;;;;;;;;;;;5096461;28;19919;-25
2022/04/07 02:08:08;;;;;;;;;;;;;;;;;;5095044;28;20224;-26
2022/04/07 02:10:34;;;;;;;;;;;;;;;;;;5095909;28;19931;-27
2022/04/07 02:13:01;;;;;;;;;;;;;;;;;;5096343;28;19908;-24
2022/04/07 02:15:27;;;;;;;;;;;;;;;;;;5096026;28;19911;-23
2022/04/07 02:17:53;;;;;;;;;;;;;;;;;;5096079;28;19928;-24
2022/04/07 02:20:19;;;;;;;;;;;;;;;;;;5094982;28;20362;-23
2022/04/07 02:22:45;;;;;;;;;;;;;;;;;;5096208;28;19911;-24
2022/04/07 02:25:11;;;;;;;;;;;;;;;;;;5094895;28;20247;-23
2022/04/07 02:27:37;;;;;;;;;;;;;;;;;;5094737;28;19908;-22
2022/04/07 02:30:03;;;;;;;;;;;;;;;;;;5095626;28;20355;-24
2022/04/07 02:32:29;;;;;;;;;;;;;;;;;;5096025;28;19995;-23
2022/04/07 02:34:56;;;;;;;;;;;;;;;;;;5095633;28;19934;-23
2022/04/07 02:37:25;;;;;;;;;;;;;;;;;;5095493;28;19912;-25
2022/04/07 02:39:51;;;;;;;;;;;;;;;;;;5094678;28;19912;-23
2022/04/07 02:42:17;;;;;;;;;;;;;;;;;;5095584;28;20244;-25
2022/04/07 02:44:42;;;;;;;;;;;;;;;;;;5095321;28;19919;-29
2022/04/07 02:47:08;;;;;;;;;;;;;;;;;;5095430;28;19948;-27
2022/04/07 02:49:35;;;;;;;;;;;;;;;;;;5095419;28;19916;-23
2022/04/07 02:52:01;;;;;;;;;;;;;;;;;;5095695;28;19923;-24
2022/04/07 02:54:27;;;;;;;;;;;;;;;;;;5095448;28;19923;-25
2022/04/07 02:56:53;;;;;;;;;;;;;;;;;;5095563;28;20252;-28
2022/04/07 02:59:19;;;;;;;;;;;;;;;;;;5095389;28;19908;-29
2022/04/07 03:01:45;;;;;;;;;;;;;;;;;;5095606;28;19990;-27
2022/04/07 03:04:11;;;;;;;;;;;;;;;;;;5095279;28;20013;-25
2022/04/07 03:06:37;;;;;;;;;;;;;;;;;;5095571;28;19908;-24
2022/04/07 03:09:03;;;;;;;;;;;;;;;;;;5095123;28;19919;-26
2022/04/07 03:11:29;;;;;;;;;;;;;;;;;;5094050;28;19972;-23
2022/04/07 03:13:55;;;;;;;;;;;;;;;;;;5095263;28;19950;-23
2022/04/07 03:16:21;;;;;;;;;;;;;;;;;;5095426;28;19923;-25
2022/04/07 03:18:47;;;;;;;;;;;;;;;;;;5094142;28;19908;-27
2022/04/07 03:21:13;;;;;;;;;;;;;;;;;;5095117;28;19970;-28
2022/04/07 03:23:39;;;;;;;;;;;;;;;;;;5095438;28;20331;-22
2022/04/07 03:26:05;;;;;;;;;;;;;;;;;;5094122;28;19931;-24
2022/04/07 03:28:31;;;;;;;;;;;;;;;;;;5094974;28;20292;-25
2022/04/07 03:30:57;;;;;;;;;;;;;;;;;;5095047;28;19966;-25
2022/04/07 03:33:23;;;;;;;;;;;;;;;;;;5094075;28;19908;-26
2022/04/07 03:35:49;;;;;;;;;;;;;;;;;;5095023;28;19931;-27
2022/04/07 03:38:15;;;;;;;;;;;;;;;;;;5095351;28;19908;-24
2022/04/07 03:40:42;;;;;;;;;;;;;;;;;;5095241;28;20342;-23
2022/04/07 03:43:08;;;;;;;;;;;;;;;;;;5095135;28;20287;-25
2022/04/07 03:45:34;;;;;;;;;;;;;;;;;;5094836;28;19947;-27
2022/04/07 03:48:01;;;;;;;;;;;;;;;;;;5095011;28;19915;-24
2022/04/07 03:50:27;;;;;;;;;;;;;;;;;;5094831;28;20349;-23
2022/04/07 03:52:53;;;;;;;;;;;;;;;;;;5095018;28;19930;-23
2022/04/07 03:55:20;;;;;;;;;;;;;;;;;;5095512;28;19912;-23
2022/04/07 03:57:46;;;;;;;;;;;;;;;;;;5098236;28;19909;-24
2022/04/07 04:00:12;;;;;;;;;;;;;;;;;;5097556;28;19916;-25
2022/04/07 04:02:38;;;;;;;;;;;;;;;;;;5098458;28;19912;-24
2022/04/07 04:05:04;;;;;;;;;;;;;;;;;;5098433;28;19991;-24
2022/04/07 04:07:30;;;;;;;;;;;;;;;;;;5097191;28;19912;-26
2022/04/07 04:09:56;;;;;;;;;;;;;;;;;;5096793;28;19920;-25
2022/04/07 04:12:22;;;;;;;;;;;;;;;;;;5097918;28;19916;-26
2022/04/07 04:14:48;;;;;;;;;;;;;;;;;;5098108;28;19919;-27
2022/04/07 04:17:14;;;;;;;;;;;;;;;;;;5097855;28;19912;-30
2022/04/07 04:19:40;;;;;;;;;;;;;;;;;;5097877;28;19924;-27
2022/04/07 04:22:06;;;;;;;;;;;;;;;;;;5097829;28;19909;-27
2022/04/07 04:24:32;;;;;;;;;;;;;;;;;;5097992;28;19924;-23
2022/04/07 04:26:58;;;;;;;;;;;;;;;;;;5098091;28;19923;-23
2022/04/07 04:29:24;;;;;;;;;;;;;;;;;;5096979;28;20282;-26
2022/04/07 04:31:50;;;;;;;;;;;;;;;;;;5098007;28;19961;-23
2022/04/07 04:34:16;;;;;;;;;;;;;;;;;;5096811;28;19909;-26
2022/04/07 04:36:42;;;;;;;;;;;;;;;;;;5097673;28;19946;-25
2022/04/07 04:39:08;;;;;;;;;;;;;;;;;;5097747;28;19986;-24
2022/04/07 04:41:34;;;;;;;;;;;;;;;;;;5097606;28;19923;-24
2022/04/07 04:44:00;;;;;;;;;;;;;;;;;;5097557;28;20224;-24
2022/04/07 04:46:27;;;;;;;;;;;;;;;;;;5097670;28;19916;-24
2022/04/07 04:48:53;;;;;;;;;;;;;;;;;;5097231;28;19919;-25
2022/04/07 04:51:19;;;;;;;;;;;;;;;;;;5097337;28;19915;-25
2022/04/07 04:53:45;;;;;;;;;;;;;;;;;;5097366;28;19912;-23
2022/04/07 04:56:11;;;;;;;;;;;;;;;;;;5097285;28;20371;-26
2022/04/07 04:58:37;;;;;;;;;;;;;;;;;;5097436;28;19908;-27
2022/04/07 05:01:03;;;;;;;;;;;;;;;;;;5096264;28;19916;-27
2022/04/07 05:03:29;;;;;;;;;;;;;;;;;;5097284;28;20281;-25
2022/04/07 05:05:55;;;;;;;;;;;;;;;;;;5096975;28;19948;-24
2022/04/07 05:08:21;;;;;;;;;;;;;;;;;;5097044;28;19955;-23
2022/04/07 05:10:47;;;;;;;;;;;;;;;;;;5096811;28;19920;-24
2022/04/07 05:13:13;;;;;;;;;;;;;;;;;;5096976;28;20287;-23
2022/04/07 05:15:39;;;;;;;;;;;;;;;;;;5096891;28;20259;-29
2022/04/07 05:18:05;;;;;;;;;;;;;;;;;;5096785;28;19912;-26
2022/04/07 05:20:31;;;;;;;;;;;;;;;;;;5095906;28;19973;-24
2022/04/07 05:22:57;;;;;;;;;;;;;;;;;;5096006;28;19912;-25
2022/04/07 05:25:23;;;;;;;;;;;;;;;;;;5096828;28;19926;-29
2022/04/07 05:27:49;;;;;;;;;;;;;;;;;;5096680;28;20246;-25
2022/04/07 05:30:18;;;;;;;;;;;;;;;;;;5096700;28;19916;-24
2022/04/07 05:32:44;;;;;;;;;;;;;;;;;;5096948;28;19918;-24
2022/04/07 05:35:10;;;;;;;;;;;;;;;;;;5095385;28;19923;-25
2022/04/07 05:37:36;;;;;;;;;;;;;;;;;;5096746;28;19908;-24
2022/04/07 05:40:02;;;;;;;;;;;;;;;;;;5096502;28;20347;-24
2022/04/07 05:42:28;;;;;;;;;;;;;;;;;;5096471;28;19919;-28
2022/04/07 05:44:54;;;;;;;;;;;;;;;;;;5096448;28;19943;-25
2022/04/07 05:47:20;;;;;;;;;;;;;;;;;;5095282;28;19953;-28
2022/04/07 05:49:46;;;;;;;;;;;;;;;;;;5096568;28;19916;-27
2022/04/07 05:52:12;;;;;;;;;;;;;;;;;;5096592;28;20258;-25
2022/04/07 05:54:38;;;;;;;;;;;;;;;;;;5096492;28;19912;-24
2022/04/07 05:57:04;;;;;;;;;;;;;;;;;;5096312;28;19920;-27
2022/04/07 05:59:30;;;;;;;;;;;;;;;;;;5095914;28;19954;-24
2022/04/07 06:04:32;;;;;;;;;;;;;;;;;;5074655;28;20393;-29
2022/04/07 06:06:58;;;;;;;;;;;;;;;;;;5075956;28;19912;-29
2022/04/07 06:09:26;;;;;;;;;;;;;;;;;;5075837;28;20076;-29
2022/04/07 06:11:51;;;;;;;;;;;;;;;;;;5075576;28;20358;-29
2022/04/07 06:14:18;;;;;;;;;;;;;;;;;;5075703;28;19909;-29
2022/04/07 06:16:43;;;;;;;;;;;;;;;;;;5075813;28;19939;-29
2022/04/07 06:19:10;;;;;;;;;;;;;;;;;;5075364;28;20003;-29
2022/04/07 06:21:36;;;;;;;;;;;;;;;;;;5075568;28;19939;-29
2022/04/07 06:24:02;;;;;;;;;;;;;;;;;;5075731;28;19912;-29
2022/04/07 06:26:28;;;;;;;;;;;;;;;;;;5075755;28;19958;-29
2022/04/07 06:28:54;;;;;;;;;;;;;;;;;;5075381;28;19917;-29
2022/04/07 06:31:20;;;;;;;;;;;;;;;;;;5075578;28;19912;-29
2022/04/07 06:33:46;;;;;;;;;;;;;;;;;;5075309;28;20007;-29
2022/04/07 06:36:12;;;;;;;;;;;;;;;;;;5075298;28;20017;-29
2022/04/07 06:38:38;;;;;;;;;;;;;;;;;;5075262;28;20325;-29
2022/04/07 06:41:04;;;;;;;;;;;;;;;;;;5075460;28;19919;-26
2022/04/07 06:43:30;;;;;;;;;;;;;;;;;;5075363;28;19971;-27
2022/04/07 06:45:56;;;;;;;;;;;;;;;;;;5075122;28;19992;-29
2022/04/07 06:48:22;;;;;;;;;;;;;;;;;;5075068;28;19952;-29
2022/04/07 06:50:48;;;;;;;;;;;;;;;;;;5075074;28;19912;-29
2022/04/07 06:53:14;;;;;;;;;;;;;;;;;;5074965;28;20228;-29
2022/04/07 06:55:40;;;;;;;;;;;;;;;;;;5075002;28;19948;-29
2022/04/07 06:58:06;;;;;;;;;;;;;;;;;;5074979;28;20296;-29
2022/04/07 07:00:32;;;;;;;;;;;;;;;;;;5074848;28;19916;-29
2022/04/07 07:02:58;;;;;;;;;;;;;;;;;;5074742;28;20319;-29
2022/04/07 07:05:24;;;;;;;;;;;;;;;;;;5074901;28;19912;-29
2022/04/07 07:07:50;;;;;;;;;;;;;;;;;;5074917;28;20243;-29
2022/04/07 07:10:16;;;;;;;;;;;;;;;;;;5074975;28;19916;-29
2022/04/07 07:12:42;;;;;;;;;;;;;;;;;;5074637;28;20003;-29
2022/04/07 07:15:08;;;;;;;;;;;;;;;;;;5074636;28;19939;-29
2022/04/07 07:17:34;;;;;;;;;;;;;;;;;;5074692;28;19995;-29
2022/04/07 07:20:00;;;;;;;;;;;;;;;;;;5074641;28;19912;-29
2022/04/07 07:22:26;;;;;;;;;;;;;;;;;;5074526;28;19919;-29
2022/04/07 07:24:52;;;;;;;;;;;;;;;;;;5074609;28;19942;-26
2022/04/07 07:27:18;;;;;;;;;;;;;;;;;;5075011;28;19909;-26
2022/04/07 07:29:46;;;;;;;;;;;;;;;;;;5074721;28;19917;-29
2022/04/07 07:32:12;;;;;;;;;;;;;;;;;;5078598;28;19915;-30
2022/04/07 07:34:38;;;;;;;;;;;;;;;;;;5078884;28;20293;-29
2022/04/07 07:37:04;;;;;;;;;;;;;;;;;;5078589;28;19908;-29
2022/04/07 07:39:30;;;;;;;;;;;;;;;;;;5078372;28;19913;-29
2022/04/07 07:41:56;;;;;;;;;;;;;;;;;;5078572;28;19908;-29
2022/04/07 07:44:23;;;;;;;;;;;;;;;;;;5060502;28;20058;-27
2022/04/07 07:46:49;;;;;;;;;;;;;;;;;;5078253;28;19916;-27
2022/04/07 07:49:15;;;;;;;;;;;;;;;;;;5078249;28;20013;-27
2022/04/07 07:51:42;;;;;;;;;;;;;;;;;;5060477;28;19908;-27
2022/04/07 07:54:08;;;;;;;;;;;;;;;;;;5078237;28;19924;-27
2022/04/07 07:56:34;;;;;;;;;;;;;;;;;;5078213;28;19908;-27
2022/04/07 07:59:00;;;;;;;;;;;;;;;;;;5078151;28;19942;-27
2022/04/07 08:01:26;;;;;;;;;;;;;;;;;;5079150;28;19920;-27
2022/04/07 08:03:52;;;;;;;;;;;;;;;;;;5077724;28;19920;-27
2022/04/07 08:06:18;;;;;;;;;;;;;;;;;;5077980;28;19922;-27
2022/04/07 08:08:44;;;;;;;;;;;;;;;;;;5077926;28;19999;-27
2022/04/07 08:11:10;;;;;;;;;;;;;;;;;;5078221;28;19920;-27
2022/04/07 08:13:36;;;;;;;;;;;;;;;;;;5077745;28;20338;-27
2022/04/07 08:16:02;;;;;;;;;;;;;;;;;;5077763;28;19912;-27
2022/04/07 08:18:28;;;;;;;;;;;;;;;;;;5078037;28;19928;-27
2022/04/07 08:20:54;;;;;;;;;;;;;;;;;;5077672;28;20300;-27
2022/04/07 08:23:20;;;;;;;;;;;;;;;;;;5077519;28;19935;-27
2022/04/07 08:25:46;;;;;;;;;;;;;;;;;;5077710;28;19912;-27
2022/04/07 08:28:12;;;;;;;;;;;;;;;;;;5077831;28;19912;-27
2022/04/07 08:30:38;;;;;;;;;;;;;;;;;;5077561;28;19919;-27
2022/04/07 08:33:04;;;;;;;;;;;;;;;;;;5077240;28;19919;-27
2022/04/07 08:35:30;;;;;;;;;;;;;;;;;;5077501;28;20296;-27
2022/04/07 08:37:56;;;;;;;;;;;;;;;;;;5077689;28;20251;-27
2022/04/07 08:40:22;;;;;;;;;;;;;;;;;;5077362;28;20240;-27
2022/04/07 08:42:48;;;;;;;;;;;;;;;;;;5076854;28;20007;-27
2022/04/07 08:45:15;;;;;;;;;;;;;;;;;;5077701;28;19922;-27
2022/04/07 08:47:41;;;;;;;;;;;;;;;;;;5077557;28;19912;-27
2022/04/07 08:50:07;;;;;;;;;;;;;;;;;;5077112;28;19974;-27
2022/04/07 08:52:33;;;;;;;;;;;;;;;;;;5077127;28;20271;-27
2022/04/07 08:54:59;;;;;;;;;;;;;;;;;;5077018;28;19916;-27
2022/04/07 08:57:25;;;;;;;;;;;;;;;;;;5077424;28;20346;-27
2022/04/07 08:59:51;;;;;;;;;;;;;;;;;;5077435;28;19912;-27
2022/04/07 09:02:17;;;;;;;;;;;;;;;;;;5076669;28;19913;-27
2022/04/07 09:04:44;;;;;;;;;;;;;;;;;;5077035;28;20225;-27
2022/04/07 09:07:10;;;;;;;;;;;;;;;;;;5077027;28;19916;-27
2022/04/07 09:09:36;;;;;;;;;;;;;;;;;;5077174;28;20023;-27
2022/04/07 09:12:02;;;;;;;;;;;;;;;;;;5076819;28;19912;-27
2022/04/07 09:14:28;;;;;;;;;;;;;;;;;;5076888;28;20318;-27
2022/04/07 09:16:54;;;;;;;;;;;;;;;;;;5076799;28;19909;-27
2022/04/07 09:19:20;;;;;;;;;;;;;;;;;;5076723;28;19912;-27
2022/04/07 09:21:46;;;;;;;;;;;;;;;;;;5076631;28;19909;-27
2022/04/07 09:24:12;;;;;;;;;;;;;;;;;;5076946;28;19944;-27
2022/04/07 09:26:43;;;;;;;;;;;;;;;;;;5076426;28;20287;-27
2022/04/07 09:29:09;;;;;;;;;;;;;;;;;;5076366;28;20007;-27
2022/04/07 09:31:35;;;;;;;;;;;;;;;;;;5076383;28;19913;-27
2022/04/07 09:34:02;;;;;;;;;;;;;;;;;;5076303;28;19938;-27
2022/04/07 09:36:28;;;;;;;;;;;;;;;;;;5076678;28;19924;-27
2022/04/07 09:38:54;;;;;;;;;;;;;;;;;;5076551;28;19977;-27
2022/04/07 09:41:20;;;;;;;;;;;;;;;;;;5076160;28;19917;-27
2022/04/07 09:43:46;;;;;;;;;;;;;;;;;;5076072;28;19947;-27
2022/04/07 09:46:12;;;;;;;;;;;;;;;;;;5075889;28;19913;-27
2022/04/07 09:48:38;;;;;;;;;;;;;;;;;;5075956;28;19912;-27
2022/04/07 09:51:04;;;;;;;;;;;;;;;;;;5075861;28;19919;-27
2022/04/07 09:53:30;;;;;;;;;;;;;;;;;;5075159;28;20224;-27
2022/04/07 09:55:57;;;;;;;;;;;;;;;;;;5075653;28;19913;-27
2022/04/07 09:58:23;;;;;;;;;;;;;;;;;;5075595;28;19912;-27
2022/04/07 10:00:49;;;;;;;;;;;;;;;;;;5075533;28;19970;-27
2022/04/07 10:03:15;;;;;;;;;;;;;;;;;;5075329;28;19927;-28
2022/04/07 10:05:41;;;;;;;;;;;;;;;;;;5075815;28;19912;-27
2022/04/07 10:08:07;;;;;;;;;;;;;;;;;;5075460;28;20346;-27
2022/04/07 10:10:34;;;;;;;;;;;;;;;;;;5075467;28;19920;-27
2022/04/07 10:13:00;;;;;;;;;;;;;;;;;;5075252;28;19916;-27
2022/04/07 10:15:26;;;;;;;;;;;;;;;;;;5075337;28;19908;-27
2022/04/07 10:17:52;;;;;;;;;;;;;;;;;;5075553;28;19913;-27
2022/04/07 10:20:18;;;;;;;;;;;;;;;;;;5075257;28;19967;-27
2022/04/07 10:22:44;;;;;;;;;;;;;;;;;;5075184;28;19908;-27
2022/04/07 10:25:10;;;;;;;;;;;;;;;;;;5075551;28;19924;-27
2022/04/07 10:27:37;;;;;;;;;;;;;;;;;;5075072;28;19912;-27
2022/04/07 10:30:03;;;;;;;;;;;;;;;;;;5075721;28;19962;-27
2022/04/07 10:32:29;;;;;;;;;;;;;;;;;;5075076;28;19916;-27
2022/04/07 10:34:55;;;;;;;;;;;;;;;;;;5075074;28;19912;-27
2022/04/07 10:37:21;;;;;;;;;;;;;;;;;;5075288;28;19913;-27
2022/04/07 10:39:48;;;;;;;;;;;;;;;;;;5074901;28;19931;-27
2022/04/07 10:42:14;;;;;;;;;;;;;;;;;;5074757;28;19969;-28
2022/04/07 10:44:40;;;;;;;;;;;;;;;;;;5076234;28;19909;-27
2022/04/07 10:47:09;;;;;;;;;;;;;;;;;;5074908;28;19912;-27
2022/04/07 10:49:35;;;;;;;;;;;;;;;;;;5074774;28;19913;-27
2022/04/07 10:52:06;;;;;;;;;;;;;;;;;;5057116;28;19991;-27
2022/04/07 10:54:33;;;;;;;;;;;;;;;;;;5074842;28;19919;-27
2022/04/07 10:57:01;;;;;;;;;;;;;;;;;;5075099;28;19912;-27
2022/04/07 10:59:27;;;;;;;;;;;;;;;;;;5075062;28;19912;-27
2022/04/07 11:01:54;;;;;;;;;;;;;;;;;;5074645;28;19966;-27
2022/04/07 11:04:20;;;;;;;;;;;;;;;;;;5074236;28;19959;-28
2022/04/07 11:06:46;;;;;;;;;;;;;;;;;;5075389;28;19935;-27
2022/04/07 11:09:12;;;;;;;;;;;;;;;;;;5074625;28;19916;-28
2022/04/07 11:11:38;;;;;;;;;;;;;;;;;;5074979;28;19923;-28
2022/04/07 11:14:04;;;;;;;;;;;;;;;;;;5074669;28;19908;-28
2022/04/07 11:16:36;;;;;;;;;;;;;;;;;;5074696;28;20262;-28
2022/04/07 11:19:02;;;;;;;;;;;;;;;;;;5074975;28;20003;-28
2022/04/07 11:21:28;;;;;;;;;;;;;;;;;;5074810;28;19913;-28
2022/04/07 11:23:56;;;;;;;;;;;;;;;;;;5074498;28;20022;-28
2022/04/07 11:26:22;;;;;;;;;;;;;;;;;;5074424;28;19974;-28
2022/04/07 11:28:48;;;;;;;;;;;;;;;;;;5074349;28;19912;-28
2022/04/07 11:31:14;;;;;;;;;;;;;;;;;;5074692;28;19919;-28
2022/04/07 11:33:40;;;;;;;;;;;;;;;;;;5074482;28;20254;-28
2022/04/07 11:36:07;;;;;;;;;;;;;;;;;;5075060;28;20296;-28
2022/04/07 11:38:33;;;;;;;;;;;;;;;;;;5074267;28;19952;-28
2022/04/07 11:40:59;;;;;;;;;;;;;;;;;;5074356;28;19912;-28
2022/04/07 11:43:25;;;;;;;;;;;;;;;;;;5074334;28;19931;-28
2022/04/07 11:45:52;;;;;;;;;;;;;;;;;;5074168;28;19931;-28
2022/04/07 11:48:18;;;;;;;;;;;;;;;;;;5074426;28;19909;-28
2022/04/07 11:50:44;;;;;;;;;;;;;;;;;;5056320;28;20373;-28
2022/04/07 11:53:10;;;;;;;;;;;;;;;;;;5073984;28;19919;-28
2022/04/07 11:55:36;;;;;;;;;;;;;;;;;;5074219;28;19909;-28
2022/04/07 11:58:02;;;;;;;;;;;;;;;;;;5074246;28;19912;-28
2022/04/07 12:00:28;;;;;;;;;;;;;;;;;;5074069;28;19912;-28
2022/04/07 12:02:54;;;;;;;;;;;;;;;;;;5073848;28;19913;-28
2022/04/07 12:05:20;;;;;;;;;;;;;;;;;;5074004;28;19917;-28
2022/04/07 12:07:46;;;;;;;;;;;;;;;;;;5074210;28;19915;-28
2022/04/07 12:10:14;;;;;;;;;;;;;;;;;;5074136;28;19923;-28
2022/04/07 12:12:40;;;;;;;;;;;;;;;;;;5074025;28;19912;-28
2022/04/07 12:15:06;;;;;;;;;;;;;;;;;;5074043;28;19931;-28
2022/04/07 12:17:32;;;;;;;;;;;;;;;;;;5076701;28;20014;-28
2022/04/07 12:19:57;;;;;;;;;;;;;;;;;;5077862;28;19923;-28
2022/04/07 12:22:23;;;;;;;;;;;;;;;;;;5077520;28;20378;-28
2022/04/07 12:24:49;;;;;;;;;;;;;;;;;;5077434;28;19981;-28
2022/04/07 12:27:15;;;;;;;;;;;;;;;;;;5077771;28;19931;-28
2022/04/07 12:29:41;;;;;;;;;;;;;;;;;;5077329;28;19923;-28
2022/04/07 12:32:09;;;;;;;;;;;;;;;;;;5077580;28;19916;-28
2022/04/07 12:34:35;;;;;;;;;;;;;;;;;;5077297;28;19913;-28
2022/04/07 12:37:01;;;;;;;;;;;;;;;;;;5059465;28;20295;-28
2022/04/07 12:39:27;;;;;;;;;;;;;;;;;;5077185;28;19959;-28
2022/04/07 12:41:54;;;;;;;;;;;;;;;;;;5077115;28;19912;-28
2022/04/07 12:44:23;;;;;;;;;;;;;;;;;;5077327;28;20204;-28
2022/04/07 12:46:49;;;;;;;;;;;;;;;;;;5077387;28;19956;-28
2022/04/07 12:49:15;;;;;;;;;;;;;;;;;;5077167;28;19920;-28
2022/04/07 12:51:41;;;;;;;;;;;;;;;;;;5076546;28;19925;-28
2022/04/07 12:54:07;;;;;;;;;;;;;;;;;;5076721;28;19919;-28
2022/04/07 12:56:33;;;;;;;;;;;;;;;;;;5076635;28;19923;-28
2022/04/07 12:58:59;;;;;;;;;;;;;;;;;;5076977;28;19928;-28
2022/04/07 13:01:25;;;;;;;;;;;;;;;;;;5076687;28;19912;-28
2022/04/07 13:03:52;;;;;;;;;;;;;;;;;;5076372;28;19927;-28
2022/04/07 13:06:18;;;;;;;;;;;;;;;;;;5076542;28;19923;-28
2022/04/07 13:08:44;;;;;;;;;;;;;;;;;;5076577;28;20037;-28
2022/04/07 13:11:11;;;;;;;;;;;;;;;;;;5076522;28;19913;-28
2022/04/07 13:13:37;;;;;;;;;;;;;;;;;;5076382;28;19916;-28
2022/04/07 13:16:04;;;;;;;;;;;;;;;;;;5076624;28;19919;-27
2022/04/07 13:18:29;;;;;;;;;;;;;;;;;;5076387;28;20209;-28
2022/04/07 13:20:55;;;;;;;;;;;;;;;;;;5076757;28;19966;-28
2022/04/07 13:23:21;;;;;;;;;;;;;;;;;;5076374;28;20004;-28
2022/04/07 13:25:47;;;;;;;;;;;;;;;;;;5076574;28;19947;-28
2022/04/07 13:28:13;;;;;;;;;;;;;;;;;;5076528;28;20232;-28
2022/04/07 13:30:39;;;;;;;;;;;;;;;;;;5076216;28;19917;-28
2022/04/07 13:33:05;;;;;;;;;;;;;;;;;;5076292;28;19923;-28
2022/04/07 13:35:31;;;;;;;;;;;;;;;;;;5076422;28;19909;-28
2022/04/07 13:38:02;;;;;;;;;;;;;;;;;;5076108;28;19912;-28
2022/04/07 13:40:28;;;;;;;;;;;;;;;;;;5076401;28;20199;-28
2022/04/07 13:42:54;;;;;;;;;;;;;;;;;;5076134;28;19918;-28
2022/04/07 13:45:20;;;;;;;;;;;;;;;;;;5076288;28;19913;-28
2022/04/07 13:47:46;;;;;;;;;;;;;;;;;;5076313;28;20254;-28
2022/04/07 13:50:12;;;;;;;;;;;;;;;;;;5075881;28;19916;-28
2022/04/07 13:52:38;;;;;;;;;;;;;;;;;;5075734;28;19913;-28
2022/04/07 13:55:04;;;;;;;;;;;;;;;;;;5075726;28;20311;-28
2022/04/07 13:57:30;;;;;;;;;;;;;;;;;;5076035;28;19962;-28
2022/04/07 13:59:56;;;;;;;;;;;;;;;;;;5075691;28;20236;-28
2022/04/07 14:02:22;;;;;;;;;;;;;;;;;;5075546;28;19969;-28
2022/04/07 14:04:48;;;;;;;;;;;;;;;;;;5075224;28;20013;-28
2022/04/07 14:07:14;;;;;;;;;;;;;;;;;;5075626;28;19917;-28
2022/04/07 14:09:40;;;;;;;;;;;;;;;;;;5075388;28;20369;-28
2022/04/07 14:12:06;;;;;;;;;;;;;;;;;;5076275;28;19919;-28
2022/04/07 14:14:32;;;;;;;;;;;;;;;;;;5075459;28;20347;-28
2022/04/07 14:16:59;;;;;;;;;;;;;;;;;;5075355;28;19948;-28
2022/04/07 14:19:25;;;;;;;;;;;;;;;;;;5075348;28;19995;-28
2022/04/07 14:21:51;;;;;;;;;;;;;;;;;;5075302;28;20318;-29
2022/04/07 14:24:17;;;;;;;;;;;;;;;;;;5075257;28;20294;-28
2022/04/07 14:26:43;;;;;;;;;;;;;;;;;;5075226;28;19912;-28
2022/04/07 14:29:09;;;;;;;;;;;;;;;;;;5075002;28;20065;-28
2022/04/07 14:31:36;;;;;;;;;;;;;;;;;;5075864;28;19916;-28
2022/04/07 14:34:03;;;;;;;;;;;;;;;;;;5075109;28;19923;-28
2022/04/07 14:36:29;;;;;;;;;;;;;;;;;;5075364;28;20312;-28
2022/04/07 14:38:55;;;;;;;;;;;;;;;;;;5074962;28;19987;-28
2022/04/07 14:41:22;;;;;;;;;;;;;;;;;;5075047;28;19912;-28
2022/04/07 14:43:48;;;;;;;;;;;;;;;;;;5074858;28;19908;-28
2022/04/07 14:46:14;;;;;;;;;;;;;;;;;;5075295;28;19918;-28
2022/04/07 14:48:40;;;;;;;;;;;;;;;;;;5074958;28;19917;-28
2022/04/07 14:51:06;;;;;;;;;;;;;;;;;;5074968;28;20342;-28
2022/04/07 14:53:32;;;;;;;;;;;;;;;;;;5074896;28;19947;-28
2022/04/07 14:55:59;;;;;;;;;;;;;;;;;;5074974;28;19923;-28
2022/04/07 14:58:25;;;;;;;;;;;;;;;;;;5075172;28;19916;-28
2022/04/07 15:00:51;;;;;;;;;;;;;;;;;;5075071;28;20259;-29
2022/04/07 15:03:17;;;;;;;;;;;;;;;;;;5074438;28;20006;-28
2022/04/07 15:05:44;;;;;;;;;;;;;;;;;;5074845;28;19979;-28
2022/04/07 15:08:10;;;;;;;;;;;;;;;;;;5075114;28;19912;-28
2022/04/07 15:10:36;;;;;;;;;;;;;;;;;;5074613;28;20267;-28
2022/04/07 15:13:02;;;;;;;;;;;;;;;;;;5074782;28;19909;-29
2022/04/07 15:15:30;;;;;;;;;;;;;;;;;;5074632;28;19913;-28
2022/04/07 15:17:56;;;;;;;;;;;;;;;;;;5075762;28;19908;-28
2022/04/07 15:20:22;;;;;;;;;;;;;;;;;;5074699;28;19970;-28
2022/04/07 15:22:49;;;;;;;;;;;;;;;;;;5074734;28;19970;-28
2022/04/07 15:25:15;;;;;;;;;;;;;;;;;;5074740;28;19912;-28
2022/04/07 15:27:42;;;;;;;;;;;;;;;;;;5074622;28;19913;-28
2022/04/07 15:30:10;;;;;;;;;;;;;;;;;;5074938;28;20299;-28
2022/04/07 15:32:36;;;;;;;;;;;;;;;;;;5074641;28;19950;-28
2022/04/07 15:35:02;;;;;;;;;;;;;;;;;;5074986;28;20301;-28
2022/04/07 15:37:28;;;;;;;;;;;;;;;;;;5074722;28;20408;-28
2022/04/07 15:39:54;;;;;;;;;;;;;;;;;;5074699;28;19960;-28
2022/04/07 15:42:20;;;;;;;;;;;;;;;;;;5074528;28;19912;-29
2022/04/07 15:44:46;;;;;;;;;;;;;;;;;;5074672;28;19962;-28
2022/04/07 15:47:12;;;;;;;;;;;;;;;;;;5074592;28;19919;-28
2022/04/07 15:49:40;;;;;;;;;;;;;;;;;;5074547;28;19912;-28
2022/04/07 15:52:06;;;;;;;;;;;;;;;;;;5076517;28;19943;-28
2022/04/07 15:54:33;;;;;;;;;;;;;;;;;;5078371;28;19908;-29
2022/04/07 15:56:59;;;;;;;;;;;;;;;;;;5078449;28;20003;-28
2022/04/07 15:59:25;;;;;;;;;;;;;;;;;;5078368;28;19919;-28
2022/04/07 16:01:51;;;;;;;;;;;;;;;;;;5078038;28;20243;-28
2022/04/07 16:04:17;;;;;;;;;;;;;;;;;;5077997;28;19932;-27
2022/04/07 16:06:43;;;;;;;;;;;;;;;;;;5077910;28;19912;-28
2022/04/07 16:09:09;;;;;;;;;;;;;;;;;;5077959;28;20338;-28
2022/04/07 16:11:35;;;;;;;;;;;;;;;;;;5078255;28;19917;-28
2022/04/07 16:14:01;;;;;;;;;;;;;;;;;;5078167;28;19923;-28
2022/04/07 16:16:27;;;;;;;;;;;;;;;;;;5077840;28;20250;-28
2022/04/07 16:18:53;;;;;;;;;;;;;;;;;;5077834;28;19912;-28
2022/04/07 16:21:19;;;;;;;;;;;;;;;;;;5077728;28;19909;-28
2022/04/07 16:23:45;;;;;;;;;;;;;;;;;;5060232;28;19971;-28
2022/04/07 16:26:11;;;;;;;;;;;;;;;;;;5077851;28;19942;-29
2022/04/07 16:28:38;;;;;;;;;;;;;;;;;;5078010;28;20255;-28
2022/04/07 16:31:04;;;;;;;;;;;;;;;;;;5077934;28;19954;-27
2022/04/07 16:33:30;;;;;;;;;;;;;;;;;;5077807;28;19912;-27
2022/04/07 16:35:56;;;;;;;;;;;;;;;;;;5077836;28;19912;-28
2022/04/07 16:38:22;;;;;;;;;;;;;;;;;;5077452;28;20251;-28
2022/04/07 16:40:48;;;;;;;;;;;;;;;;;;5077383;28;19920;-28